Time;durP1;ratioP1;P1;durP2;ratioP2;P2;SDS_P1;SDS_P2;PMS_P1;PMS_P2;Temp;Humidity;BMP_temperature;BMP_pressure;BME280_temperature;BME280_humidity;BME280_pressure;Samples;Min_cycle;Max_cycle;Signal;HPM_P1;HPM_P2
2021/03/05 00:00:43;;;;;;;55.95;31.33;;;;;;;4.16;69.15;99958.98;1866076;75;21789;-70
2021/03/05 00:03:11;;;;;;;54.53;30.77;;;;;;;4.13;69.17;99971.34;1842146;77;21926;-70
2021/03/05 00:05:40;;;;;;;52.20;29.12;;;;;;;4.08;69.21;99961.95;1846614;75;21875;-69
2021/03/05 00:08:08;;;;;;;53.75;28.60;;;;;;;4.05;69.28;99971.66;1843656;75;21207;-69
2021/03/05 00:10:39;;;;;;;50.80;28.57;;;;;;;4.00;69.23;99953.33;1847494;75;21375;-70
2021/03/05 00:13:08;;;;;;;52.55;28.95;;;;;;;3.98;69.15;99963.84;1852413;75;21667;-69
2021/03/05 00:15:39;;;;;;;42.48;23.60;;;;;;;3.94;68.93;99967.45;1848412;75;21165;-70
2021/03/05 00:18:07;;;;;;;41.77;22.75;;;;;;;3.91;68.48;99961.30;1846039;76;21483;-70
2021/03/05 00:20:43;;;;;;;41.88;22.90;;;;;;;3.89;67.61;99959.42;1847310;75;21191;-68
2021/03/05 00:23:11;;;;;;;37.08;20.77;;;;;;;3.87;67.12;99960.16;1850541;75;21196;-70
2021/03/05 00:25:38;;;;;;;38.10;19.37;;;;;;;3.85;66.50;99959.59;1844534;75;21227;-69
2021/03/05 00:28:07;;;;;;;32.58;17.85;;;;;;;3.83;65.52;99957.69;1833436;76;21153;-70
2021/03/05 00:30:34;;;;;;;28.62;15.32;;;;;;;3.78;64.79;99960.19;1837693;75;21175;-69
2021/03/05 00:33:04;;;;;;;26.25;14.45;;;;;;;3.76;63.91;99955.66;1837088;76;21183;-68
2021/03/05 00:35:33;;;;;;;25.77;14.45;;;;;;;3.75;63.34;99964.59;1848795;75;21562;-70
2021/03/05 00:38:01;;;;;;;28.47;15.65;;;;;;;3.73;63.03;99965.36;1857148;75;21204;-70
2021/03/05 00:40:29;;;;;;;29.27;16.40;;;;;;;3.70;62.83;99960.01;1843162;75;21220;-69
2021/03/05 00:42:56;;;;;;;25.57;14.13;;;;;;;3.69;62.62;99973.45;1841867;76;21187;-70
2021/03/05 00:45:24;;;;;;;25.10;15.48;;;;;;;3.68;62.59;99971.83;1834356;76;21171;-71
2021/03/05 00:47:52;;;;;;;30.30;17.30;;;;;;;3.67;62.73;99970.22;1836748;75;22101;-71
2021/03/05 00:50:21;;;;;;;26.87;14.50;;;;;;;3.66;62.84;99971.27;1849152;75;21679;-70
2021/03/05 00:52:51;;;;;;;30.72;16.65;;;;;;;3.64;63.01;99964.06;1843760;75;21215;-71
2021/03/05 00:55:20;;;;;;;32.48;18.73;;;;;;;3.64;63.25;99968.03;1811463;78;21240;-71
2021/03/05 00:57:49;;;;;;;32.00;17.15;;;;;;;3.63;63.66;99975.15;1798823;78;21024;-70
2021/03/05 01:00:20;;;;;;;40.60;20.17;;;;;;;3.62;64.09;99969.59;1814072;78;21301;-70
2021/03/05 01:02:48;;;;;;;39.23;21.82;;;;;;;3.62;64.55;99978.00;1800304;77;22315;-69
2021/03/05 01:05:17;;;;;;;44.23;23.10;;;;;;;3.61;64.92;99971.12;1815934;77;22159;-72
2021/03/05 01:07:45;;;;;;;41.00;23.35;;;;;;;3.59;65.29;99974.52;1808217;77;21218;-70
2021/03/05 01:10:15;;;;;;;43.02;23.07;;;;;;;3.57;65.63;99979.20;1812615;78;21167;-71
2021/03/05 01:12:44;;;;;;;38.78;22.22;;;;;;;3.56;65.78;99979.73;1795180;78;22467;-70
2021/03/05 01:15:12;;;;;;;36.83;20.10;;;;;;;3.55;65.92;99982.58;1807813;77;21218;-70
2021/03/05 01:17:40;;;;;;;32.33;17.32;;;;;;;3.50;65.71;99973.50;1812542;78;21499;-70
2021/03/05 01:20:12;;;;;;;31.02;17.23;;;;;;;3.48;65.46;99975.55;1806553;78;21107;-70
2021/03/05 01:22:40;;;;;;;34.38;18.00;;;;;;;3.45;65.24;99968.08;1807603;78;21103;-69
2021/03/05 01:25:14;;;;;;;32.33;15.83;;;;;;;3.41;65.14;99957.68;1815286;77;21618;-70
2021/03/05 01:27:42;;;;;;;28.60;15.50;;;;;;;3.39;65.09;99958.92;1814227;77;21215;-71
2021/03/05 01:30:12;;;;;;;28.42;15.48;;;;;;;3.38;64.94;99956.00;1814483;78;21219;-70
2021/03/05 01:32:40;;;;;;;27.93;13.83;;;;;;;3.36;64.95;99961.52;1808323;78;21245;-69
2021/03/05 01:35:12;;;;;;;28.75;15.43;;;;;;;3.35;64.80;99962.53;1809254;78;21155;-70
2021/03/05 01:37:40;;;;;;;;;;;;;;;3.33;64.78;99964.61;1815363;78;22301;-70
2021/03/05 01:40:12;;;;;;;28.98;14.47;;;;;;;3.32;64.73;99966.13;1809653;77;20301;-69
2021/03/05 01:42:41;;;;;;;29.50;15.35;;;;;;;3.30;64.75;99970.33;1817622;77;21208;-70
2021/03/05 01:45:15;;;;;;;28.50;14.30;;;;;;;3.30;64.75;99972.97;1814934;78;21434;-71
2021/03/05 01:47:46;;;;;;;23.80;14.10;;;;;;;3.31;64.66;99973.77;1796699;78;21673;-70
2021/03/05 01:50:18;;;;;;;23.60;13.38;;;;;;;3.29;64.56;99976.13;1812598;77;22289;-69
2021/03/05 01:55:09;;;;;;;22.73;13.13;;;;;;;3.32;64.39;99981.45;1761034;79;22238;-68
2021/03/05 01:57:37;;;;;;;23.85;13.55;;;;;;;3.26;64.35;99975.77;1746488;81;21212;-68
2021/03/05 02:00:06;;;;;;;21.52;12.58;;;;;;;3.23;64.24;99971.73;1728198;82;21336;-69
2021/03/05 02:02:34;;;;;;;24.75;13.10;;;;;;;3.22;64.23;99976.70;1730668;82;21144;-69
2021/03/05 02:05:03;;;;;;;23.02;12.10;;;;;;;3.20;64.20;99976.66;1722858;82;21350;-68
2021/03/05 02:07:30;;;;;;;23.18;12.58;;;;;;;3.19;64.21;99985.58;1724759;82;21093;-69
2021/03/05 02:09:58;;;;;;;23.05;12.40;;;;;;;3.15;64.16;99989.70;1735801;82;21584;-70
2021/03/05 02:12:27;;;;;;;22.50;12.07;;;;;;;3.12;64.12;99983.55;1726067;82;21409;-70
2021/03/05 02:14:56;;;;;;;22.40;13.22;;;;;;;3.11;64.19;99989.86;1727556;82;21136;-68
2021/03/05 02:17:44;;;;;;;22.45;12.58;;;;;;;3.11;64.29;99988.54;1727224;82;21627;-69
2021/03/05 02:20:31;;;;;;;26.85;14.38;;;;;;;3.09;64.38;99995.86;1726378;82;21130;-69
2021/03/05 02:23:20;;;;;;;24.50;12.50;;;;;;;3.05;64.51;100005.53;1732036;82;21216;-70
2021/03/05 02:26:18;;;;;;;23.32;12.23;;;;;;;3.00;64.62;100006.72;1729694;82;21389;-71
2021/03/05 02:29:09;;;;;;;20.95;11.03;;;;;;;2.97;64.74;100012.44;1723967;82;21233;-70
2021/03/05 02:32:00;;;;;;;20.92;11.43;;;;;;;2.96;64.80;100021.88;1720888;80;21187;-69
2021/03/05 02:34:33;;;;;;;21.40;11.85;;;;;;;2.92;64.74;100012.27;1718157;82;21658;-70
2021/03/05 02:37:09;;;;;;;22.32;12.20;;;;;;;2.91;64.73;100017.27;1731674;80;21192;-69
2021/03/05 02:40:06;;;;;;;20.80;12.00;;;;;;;2.92;64.75;100019.39;1727732;82;21452;-70
2021/03/05 02:42:53;;;;;;;23.55;12.70;;;;;;;2.92;64.82;100023.34;1727483;82;21192;-69
2021/03/05 02:45:27;;;;;;;21.57;11.80;;;;;;;2.90;64.88;100024.90;1724449;82;21592;-70
2021/03/05 02:48:03;;;;;;;21.15;11.63;;;;;;;2.91;64.92;100027.82;1734497;82;21209;-69
2021/03/05 02:50:31;;;;;;;19.67;11.12;;;;;;;2.91;64.96;100034.41;1718980;82;21663;-70
2021/03/05 02:53:05;;;;;;;24.52;12.65;;;;;;;2.89;65.01;100032.50;1729912;82;21215;-69
2021/03/05 02:55:33;;;;;;;18.60;10.58;;;;;;;2.87;65.06;100035.88;1709098;82;21204;-70
2021/03/05 02:58:01;;;;;;;22.80;11.85;;;;;;;2.85;65.11;100044.52;1714694;82;21631;-70
2021/03/05 03:00:30;;;;;;;26.30;12.50;;;;;;;2.84;65.21;100052.14;1716669;82;21556;-73
2021/03/05 03:02:58;;;;;;;21.40;10.30;;;;;;;2.83;65.28;100050.55;1715001;81;21213;-70
2021/03/05 03:05:29;;;;;;;23.38;12.95;;;;;;;2.84;65.32;100053.47;1708769;82;22312;-71
2021/03/05 03:07:58;;;;;;;21.33;10.45;;;;;;;2.83;65.38;100055.81;1717271;82;21188;-68
2021/03/05 03:10:28;;;;;;;21.68;11.73;;;;;;;2.83;65.42;100062.41;1711668;82;21154;-69
2021/03/05 03:12:59;;;;;;;22.80;11.08;;;;;;;2.83;65.47;100058.45;1714650;81;21193;-70
2021/03/05 03:15:30;;;;;;;25.57;13.30;;;;;;;2.82;65.53;100057.63;1712172;82;22555;-71
2021/03/05 03:18:04;;;;;;;23.52;13.48;;;;;;;2.84;65.58;100065.34;1712557;81;21378;-68
2021/03/05 03:20:32;;;;;;;20.90;11.55;;;;;;;2.83;65.62;100069.00;1710926;82;21608;-69
2021/03/05 03:23:00;;;;;;;23.32;12.18;;;;;;;2.82;65.67;100068.69;1719045;81;21193;-70
2021/03/05 03:25:27;;;;;;;21.27;12.13;;;;;;;2.82;65.74;100066.86;1709733;82;21181;-70
2021/03/05 03:27:56;;;;;;;23.15;12.80;;;;;;;2.83;65.79;100082.19;1713183;82;21058;-68
2021/03/05 03:30:24;;;;;;;23.70;12.70;;;;;;;2.81;65.81;100078.95;1719761;82;21381;-70
2021/03/05 03:32:53;;;;;;;24.63;12.75;;;;;;;2.80;65.89;100074.71;1711003;82;21232;-70
2021/03/05 03:35:21;;;;;;;22.52;11.15;;;;;;;2.79;65.92;100071.77;1716129;82;21118;-69
2021/03/05 03:37:51;;;;;;;24.32;12.73;;;;;;;2.80;65.96;100073.39;1706506;82;21145;-69
2021/03/05 03:40:20;;;;;;;26.20;13.50;;;;;;;2.81;65.99;100073.68;1711271;82;21691;-71
2021/03/05 03:42:51;;;;;;;24.70;12.55;;;;;;;2.80;66.02;100076.03;1714411;81;21437;-68
2021/03/05 03:45:23;;;;;;;26.30;14.30;;;;;;;2.78;66.08;100076.75;1711073;82;21078;-69
2021/03/05 03:47:51;;;;;;;25.62;14.35;;;;;;;2.79;66.16;100080.98;1705969;82;21220;-70
2021/03/05 03:50:31;;;;;;;26.87;14.20;;;;;;;2.79;66.24;100090.22;1707134;82;21188;-70
2021/03/05 03:53:03;;;;;;;22.98;12.35;;;;;;;2.77;66.31;100087.81;1710661;82;21204;-69
2021/03/05 03:55:31;;;;;;;26.33;14.03;;;;;;;2.78;66.40;100085.98;1715877;82;21211;-70
2021/03/05 03:57:59;;;;;;;26.33;12.85;;;;;;;2.75;66.54;100088.53;1705829;82;21436;-68
2021/03/05 04:00:28;;;;;;;29.30;13.90;;;;;;;2.73;66.69;100081.37;1689828;83;21233;-69
2021/03/05 04:02:56;;;;;;;24.27;12.55;;;;;;;2.76;66.81;100088.02;1721258;82;21177;-69
2021/03/05 04:05:29;;;;;;;27.60;13.70;;;;;;;2.76;66.87;100087.53;1715645;82;23547;-68
2021/03/05 04:07:57;;;;;;;26.42;13.60;;;;;;;2.76;66.96;100085.38;1688702;82;21797;-70
2021/03/05 04:10:25;;;;;;;24.72;12.65;;;;;;;2.77;66.99;100085.70;1705467;82;21550;-70
2021/03/05 04:12:55;;;;;;;26.80;13.18;;;;;;;2.77;67.06;100087.02;1715394;82;21213;-69
2021/03/05 04:15:25;;;;;;;25.40;13.80;;;;;;;2.76;67.10;100091.97;1709979;81;21716;-69
2021/03/05 04:17:53;;;;;;;24.12;13.28;;;;;;;2.73;67.17;100089.28;1707410;82;21165;-68
2021/03/05 04:20:24;;;;;;;27.15;14.65;;;;;;;2.72;67.29;100094.75;1708948;82;21394;-69
2021/03/05 04:22:52;;;;;;;27.75;14.75;;;;;;;2.70;67.43;100098.94;1717724;82;21612;-69
2021/03/05 04:25:20;;;;;;;29.35;15.65;;;;;;;2.70;67.56;100098.94;1695503;82;21192;-71
2021/03/05 04:27:48;;;;;;;26.02;14.18;;;;;;;2.71;67.72;100099.22;1709227;82;21085;-68
2021/03/05 04:30:17;;;;;;;32.08;15.85;;;;;;;2.73;67.83;100091.91;1724324;82;21055;-70
2021/03/05 04:32:45;;;;;;;27.75;14.35;;;;;;;2.73;67.92;100097.67;1710175;82;21335;-68
2021/03/05 04:35:13;;;;;;;28.32;16.15;;;;;;;2.74;68.07;100097.99;1716620;81;21181;-69
2021/03/05 04:37:40;;;;;;;30.27;15.45;;;;;;;2.73;68.23;100101.63;1716359;82;21126;-70
2021/03/05 04:40:10;;;;;;;30.02;16.02;;;;;;;2.71;68.46;100109.77;1721671;82;21181;-69
2021/03/05 04:42:38;;;;;;;32.33;16.90;;;;;;;2.68;69.06;100107.56;1734085;82;21139;-68
2021/03/05 04:45:07;;;;;;;32.13;16.32;;;;;;;2.63;69.67;100117.14;1720213;81;21347;-70
2021/03/05 04:47:35;;;;;;;30.90;17.57;;;;;;;2.58;70.27;100113.84;1698311;82;21181;-70
2021/03/05 04:50:05;;;;;;;35.13;18.07;;;;;;;2.53;70.67;100114.50;1712802;82;21187;-69
2021/03/05 04:52:33;;;;;;;35.35;18.30;;;;;;;2.51;71.07;100115.20;1712209;82;21284;-69
2021/03/05 04:55:01;;;;;;;36.13;18.05;;;;;;;2.48;71.46;100120.91;1712445;82;21708;-69
2021/03/05 04:57:29;;;;;;;36.58;18.35;;;;;;;2.48;71.75;100129.33;1711387;82;21211;-70
2021/03/05 04:59:57;;;;;;;32.55;16.85;;;;;;;2.46;72.11;100126.89;1715286;82;21152;-70
2021/03/05 05:02:25;;;;;;;32.40;17.98;;;;;;;2.45;72.46;100118.70;1714206;82;21149;-70
2021/03/05 05:04:53;;;;;;;39.15;18.07;;;;;;;2.45;72.79;100127.92;1710494;81;21211;-69
2021/03/05 05:07:20;;;;;;;34.58;17.40;;;;;;;2.43;73.14;100127.32;1709439;82;21157;-70
2021/03/05 05:09:48;;;;;;;36.68;17.75;;;;;;;2.42;73.46;100123.08;1708272;82;22126;-71
2021/03/05 05:12:19;;;;;;;31.77;17.50;;;;;;;2.43;73.75;100125.20;1711426;82;21231;-69
2021/03/05 05:14:47;;;;;;;37.48;17.65;;;;;;;2.44;74.01;100125.00;1712826;81;21193;-70
2021/03/05 05:17:15;;;;;;;32.88;17.95;;;;;;;2.40;74.30;100125.63;1713287;82;21090;-70
2021/03/05 05:19:43;;;;;;;36.50;19.10;;;;;;;2.38;74.63;100130.32;1716632;82;21157;-70
2021/03/05 05:22:11;;;;;;;37.13;18.48;;;;;;;2.29;74.91;100129.76;1716736;82;21340;-70
2021/03/05 05:24:39;;;;;;;35.55;18.42;;;;;;;2.23;75.33;100131.41;1716381;82;21624;-72
2021/03/05 05:27:07;;;;;;;46.83;23.22;;;;;;;2.13;75.65;100130.27;1711950;82;21169;-72
2021/03/05 05:29:34;;;;;;;38.08;19.70;;;;;;;2.09;76.03;100128.05;1723468;82;21213;-70
2021/03/05 05:32:04;;;;;;;38.25;19.17;;;;;;;2.07;76.32;100128.79;1715896;81;21193;-71
2021/03/05 05:34:32;;;;;;;34.55;18.62;;;;;;;2.10;76.55;100136.24;1708554;81;22385;-70
2021/03/05 05:37:01;;;;;;;36.68;18.87;;;;;;;2.16;76.76;100136.42;1714540;82;21174;-69
2021/03/05 05:39:31;;;;;;;36.90;17.75;;;;;;;2.23;76.89;100136.67;1724148;82;21216;-69
2021/03/05 05:41:58;;;;;;;37.48;20.48;;;;;;;2.30;77.02;100144.54;1713615;82;21205;-70
2021/03/05 05:44:26;;;;;;;33.65;18.27;;;;;;;2.33;77.14;100142.28;1713721;82;21181;-70
2021/03/05 05:46:54;;;;;;;35.68;18.07;;;;;;;2.39;77.21;100152.50;1720638;82;21590;-71
2021/03/05 05:49:22;;;;;;;31.23;15.75;;;;;;;2.37;77.25;100153.72;1706580;82;21296;-69
2021/03/05 05:51:50;;;;;;;29.35;14.87;;;;;;;2.31;77.34;100158.03;1721374;82;21459;-70
2021/03/05 05:54:21;;;;;;;27.42;14.73;;;;;;;2.22;77.26;100154.03;1705123;82;21695;-69
2021/03/05 05:56:53;;;;;;;29.65;15.32;;;;;;;2.16;77.29;100155.67;1714519;82;22424;-71
2021/03/05 05:59:20;;;;;;;25.95;12.40;;;;;;;2.13;77.32;100164.52;1718549;81;21489;-70
2021/03/05 06:01:48;;;;;;;28.50;13.90;;;;;;;2.14;77.27;100171.39;1700825;82;21184;-72
2021/03/05 06:04:18;;;;;;;29.90;14.18;;;;;;;2.14;77.12;100180.61;1716107;81;21204;-72
2021/03/05 06:06:45;;;;;;;30.00;14.98;;;;;;;2.13;77.08;100172.42;1717034;82;21196;-72
2021/03/05 06:09:14;;;;;;;29.52;14.35;;;;;;;2.15;77.07;100182.25;1687403;82;21675;-72
2021/03/05 06:11:41;;;;;;;30.50;14.25;;;;;;;2.20;77.04;100182.41;1718361;82;21425;-70
2021/03/05 06:14:12;;;;;;;29.57;14.35;;;;;;;2.23;76.98;100176.72;1705631;82;22546;-71
2021/03/05 06:16:58;;;;;;;31.12;15.30;;;;;;;2.27;77.00;100181.86;1717126;81;21181;-71
2021/03/05 06:19:29;;;;;;;28.45;14.63;;;;;;;2.33;76.95;100183.65;1715052;82;21659;-71
2021/03/05 06:21:58;;;;;;;30.75;14.83;;;;;;;2.41;76.95;100187.37;1722999;82;21596;-70
2021/03/05 06:24:27;;;;;;;28.75;14.38;;;;;;;2.50;76.90;100194.01;1728168;82;21390;-71
2021/03/05 06:27:17;;;;;;;29.80;15.38;;;;;;;2.54;76.77;100187.28;1715592;81;21184;-72
2021/03/05 06:29:47;;;;;;;27.05;15.00;;;;;;;2.59;76.67;100195.34;1690034;83;21221;-72
2021/03/05 06:32:16;;;;;;;28.95;15.30;;;;;;;2.67;76.53;100202.72;1694721;83;21199;-69
2021/03/05 06:34:54;;;;;;;34.65;15.60;;;;;;;2.72;76.31;100204.19;1685233;83;21684;-72
2021/03/05 06:37:24;;;;;;;30.68;15.68;;;;;;;2.74;76.13;100209.56;1693674;84;22101;-70
2021/03/05 06:40:03;;;;;;;29.55;15.35;;;;;;;2.75;75.96;100207.72;1681998;83;21219;-70
2021/03/05 06:42:51;;;;;;;29.82;14.90;;;;;;;2.76;75.78;100211.48;1690095;84;21250;-73
2021/03/05 06:45:21;;;;;;;28.50;14.28;;;;;;;2.78;75.61;100204.66;1664065;85;21318;-69
2021/03/05 06:48:08;;;;;;;29.18;15.20;;;;;;;2.81;75.44;100206.36;1694991;83;21188;-71
2021/03/05 06:50:38;;;;;;;30.12;14.95;;;;;;;2.86;75.28;100207.53;1694930;83;21686;-69
2021/03/05 06:53:23;;;;;;;31.30;16.12;;;;;;;2.90;75.04;100204.79;1698002;83;21160;-70
2021/03/05 06:55:51;;;;;;;28.85;14.60;;;;;;;2.91;74.75;100200.60;1698328;83;21233;-71
2021/03/05 06:58:20;;;;;;;26.25;14.53;;;;;;;2.94;74.69;100199.38;1691922;83;21654;-70
2021/03/05 07:00:48;;;;;;;27.32;14.07;;;;;;;2.97;74.57;100198.95;1696022;83;21243;-71
2021/03/05 07:03:24;;;;;;;27.48;14.25;;;;;;;3.01;74.47;100204.88;1698661;83;21399;-72
2021/03/05 07:05:53;;;;;;;30.27;14.58;;;;;;;3.09;74.21;100200.35;1674912;84;21204;-72
2021/03/05 07:08:41;;;;;;;27.75;13.90;;;;;;;3.18;73.93;100203.81;1690310;84;21714;-72
2021/03/05 07:11:10;;;;;;;25.60;13.45;;;;;;;3.27;73.63;100209.64;1658354;84;21196;-72
2021/03/05 07:13:50;;;;;;;25.20;12.63;;;;;;;3.34;73.17;100211.70;1700269;83;21194;-71
2021/03/05 07:16:18;;;;;;;23.22;12.78;;;;;;;3.34;72.71;100206.94;1684877;83;21284;-70
2021/03/05 07:18:47;;;;;;;23.00;12.60;;;;;;;3.31;72.15;100200.25;1661845;84;21267;-72
2021/03/05 07:21:20;;;;;;;22.15;12.23;;;;;;;3.27;71.82;100197.77;1697397;84;21619;-70
2021/03/05 07:23:48;;;;;;;22.98;12.23;;;;;;;3.22;71.48;100198.91;1665748;84;21633;-70
2021/03/05 07:26:16;;;;;;;24.32;12.10;;;;;;;3.18;71.34;100201.18;1692417;82;21207;-70
2021/03/05 07:28:46;;;;;;;21.70;11.97;;;;;;;3.13;71.15;100201.04;1666722;83;21398;-72
2021/03/05 07:31:17;;;;;;;20.27;9.73;;;;;;;3.14;71.02;100202.64;1661030;86;21197;-70
2021/03/05 07:33:49;;;;;;;22.77;10.93;;;;;;;3.15;70.80;100196.84;1679575;83;22272;-70
2021/03/05 07:36:17;;;;;;;20.37;11.15;;;;;;;3.10;70.46;100200.66;1697640;83;21218;-70
2021/03/05 07:38:49;;;;;;;20.88;11.33;;;;;;;3.03;70.29;100204.16;1667464;84;21647;-73
2021/03/05 07:41:22;;;;;;;24.07;12.60;;;;;;;3.02;70.41;100193.30;1699570;83;21376;-71
2021/03/05 07:43:51;;;;;;;25.23;13.20;;;;;;;3.07;70.37;100203.22;1694474;83;21715;-71
2021/03/05 07:46:20;;;;;;;26.70;14.45;;;;;;;3.11;70.27;100204.39;1695182;84;21230;-71
2021/03/05 07:48:49;;;;;;;25.85;13.03;;;;;;;3.15;69.98;100202.93;1691918;82;21167;-70
2021/03/05 07:51:20;;;;;;;23.18;12.58;;;;;;;3.18;69.74;100202.50;1697665;83;21213;-71
2021/03/05 07:53:54;;;;;;;26.02;13.83;;;;;;;3.21;69.63;100202.59;1696870;83;21248;-71
2021/03/05 07:56:44;;;;;;;24.75;13.15;;;;;;;3.26;69.49;100201.44;1696924;83;21283;-69
2021/03/05 07:59:44;;;;;;;24.65;13.25;;;;;;;3.33;69.40;100205.33;1690392;82;21239;-72
2021/03/05 08:02:14;;;;;;;27.20;13.95;;;;;;;3.39;69.07;100213.19;1697717;83;21355;-71
2021/03/05 08:05:03;;;;;;;25.27;13.43;;;;;;;3.50;68.87;100221.70;1697447;83;21223;-72
2021/03/05 08:07:32;;;;;;;21.33;10.82;;;;;;;3.62;68.67;100218.32;1679211;84;22239;-70
2021/03/05 08:10:00;;;;;;;22.22;12.43;;;;;;;3.73;68.42;100218.41;1663450;84;21239;-70
2021/03/05 08:15:11;;;;;;;23.83;12.33;;;;;;;3.85;67.70;100212.38;1698845;83;21093;-70
2021/03/05 08:17:45;;;;;;;23.32;11.70;;;;;;;3.92;67.36;100217.09;1660228;85;21291;-69
2021/03/05 08:20:22;;;;;;;17.27;8.78;;;;;;;3.96;67.00;100213.78;1656197;85;21396;-70
2021/03/05 08:23:05;;;;;;;18.60;10.48;;;;;;;4.05;66.32;100209.50;1698025;83;21179;-70
2021/03/05 08:25:38;;;;;;;20.17;10.82;;;;;;;4.11;65.85;100211.26;1666516;84;21183;-69
2021/03/05 08:28:10;;;;;;;15.65;9.08;;;;;;;4.23;65.73;100206.84;1658175;84;21267;-70
2021/03/05 08:30:43;;;;;;;18.20;10.40;;;;;;;4.36;65.16;100211.95;1651850;85;21672;-71
2021/03/05 08:33:27;;;;;;;21.45;10.75;;;;;;;4.42;64.84;100214.22;1695712;83;21392;-70
2021/03/05 08:35:57;;;;;;;23.38;10.78;;;;;;;4.46;64.24;100216.18;1659759;84;21192;-70
2021/03/05 08:38:36;;;;;;;25.05;12.20;;;;;;;4.43;63.55;100215.30;1658065;84;21256;-71
2021/03/05 08:41:07;;;;;;;25.75;12.35;;;;;;;4.39;63.33;100211.50;1696914;84;21156;-69
2021/03/05 08:43:36;;;;;;;22.65;12.80;;;;;;;4.36;63.36;100213.27;1662757;84;21212;-71
2021/03/05 08:46:07;;;;;;;27.02;13.48;;;;;;;4.39;63.41;100210.18;1690520;83;22980;-70
2021/03/05 08:48:44;;;;;;;29.70;14.03;;;;;;;4.40;63.29;100209.14;1695492;83;21787;-72
2021/03/05 08:51:20;;;;;;;28.02;14.33;;;;;;;4.41;63.04;100216.59;1693422;83;21223;-71
2021/03/05 08:53:56;;;;;;;34.73;16.52;;;;;;;4.31;63.07;100214.97;1655098;84;21264;-71
2021/03/05 08:56:29;;;;;;;30.88;14.35;;;;;;;4.23;63.31;100210.80;1677047;83;21136;-72
2021/03/05 08:59:02;;;;;;;28.70;13.40;;;;;;;4.17;63.19;100214.34;1678559;83;21263;-70
2021/03/05 09:01:36;;;;;;;28.83;13.80;;;;;;;4.11;63.27;100217.34;1649540;84;21160;-73
2021/03/05 09:04:15;;;;;;;28.10;13.90;;;;;;;4.09;63.10;100214.66;1650379;85;21251;-74
2021/03/05 09:06:55;;;;;;;32.75;16.25;;;;;;;4.07;63.26;100211.42;1694583;83;21328;-74
2021/03/05 09:09:27;;;;;;;30.12;15.23;;;;;;;4.12;63.47;100221.62;1665308;84;21842;-71
2021/03/05 09:12:08;;;;;;;28.42;14.60;;;;;;;4.24;63.63;100226.95;1657437;84;21396;-70
2021/03/05 09:14:36;;;;;;;30.25;14.35;;;;;;;4.36;63.36;100222.53;1663977;84;21939;-70
2021/03/05 09:17:06;;;;;;;25.75;12.88;;;;;;;4.41;62.82;100227.97;1692805;83;21389;-70
2021/03/05 09:19:39;;;;;;;21.25;11.22;;;;;;;4.41;61.69;100223.20;1692083;83;21184;-71
2021/03/05 09:22:18;;;;;;;24.20;10.85;;;;;;;4.38;61.50;100231.05;1691193;83;21171;-71
2021/03/05 09:24:55;;;;;;;23.47;10.40;;;;;;;4.48;61.64;100235.01;1690471;84;21220;-69
2021/03/05 09:27:43;;;;;;;21.23;11.22;;;;;;;4.62;61.25;100235.91;1680575;83;21238;-69
2021/03/05 09:30:24;;;;;;;22.90;11.22;;;;;;;4.76;60.91;100227.25;1688110;84;21287;-69
2021/03/05 09:32:53;;;;;;;21.25;10.28;;;;;;;4.87;60.49;100233.10;1694104;83;21566;-70
2021/03/05 09:35:28;;;;;;;22.48;11.00;;;;;;;5.00;60.25;100238.71;1662803;84;21260;-71
2021/03/05 09:37:57;;;;;;;15.75;8.43;;;;;;;5.12;59.88;100236.86;1686198;83;21382;-70
2021/03/05 09:40:27;;;;;;;17.12;8.70;;;;;;;5.24;59.33;100239.54;1693140;83;21665;-70
2021/03/05 09:42:58;;;;;;;13.43;7.28;;;;;;;5.31;58.66;100242.08;1698116;83;21236;-72
2021/03/05 09:45:55;;;;;;;16.27;8.58;;;;;;;5.37;58.43;100246.45;1687061;83;21180;-72
2021/03/05 09:48:31;;;;;;;20.65;9.28;;;;;;;5.46;58.14;100243.73;1696753;82;21242;-71
2021/03/05 09:51:07;;;;;;;14.98;7.87;;;;;;;5.55;57.91;100241.55;1665767;86;21616;-70
2021/03/05 09:53:37;;;;;;;17.57;7.90;;;;;;;5.68;57.11;100242.62;1692152;83;21666;-71
2021/03/05 09:56:07;;;;;;;16.90;8.63;;;;;;;5.72;57.00;100253.57;1699152;83;21148;-71
2021/03/05 09:58:35;;;;;;;17.20;8.60;;;;;;;5.86;56.62;100257.61;1695597;84;21225;-71
2021/03/05 10:01:04;;;;;;;15.55;8.50;;;;;;;5.92;55.86;100255.32;1696852;84;21188;-71
2021/03/05 10:03:33;;;;;;;16.27;8.03;;;;;;;5.98;55.72;100255.75;1691635;83;21219;-73
2021/03/05 10:06:01;;;;;;;16.37;7.80;;;;;;;6.08;55.58;100257.28;1697932;83;21251;-72
2021/03/05 10:08:30;;;;;;;19.60;8.68;;;;;;;6.21;54.93;100256.21;1690954;83;21238;-73
2021/03/05 10:11:09;;;;;;;13.05;6.97;;;;;;;6.24;54.31;100258.39;1696310;83;21239;-74
2021/03/05 10:13:55;;;;;;;18.92;8.63;;;;;;;6.23;53.91;100258.12;1684243;82;21211;-74
2021/03/05 10:16:29;;;;;;;20.15;10.60;;;;;;;6.27;54.40;100258.45;1696115;83;22801;-73
2021/03/05 10:19:02;;;;;;;22.65;10.68;;;;;;;6.33;54.69;100256.19;1695765;83;21236;-74
2021/03/05 10:21:30;;;;;;;25.23;12.88;;;;;;;6.18;54.73;100254.55;1655834;86;21502;-73
2021/03/05 10:24:07;;;;;;;32.73;17.42;;;;;;;6.00;55.33;100255.53;1698214;83;21203;-72
2021/03/05 10:26:36;;;;;;;26.62;12.28;;;;;;;5.95;55.95;100264.17;1699147;83;21381;-71
2021/03/05 10:29:06;;;;;;;25.72;12.58;;;;;;;5.91;55.93;100259.02;1696878;83;21394;-71
2021/03/05 10:31:53;;;;;;;27.32;11.73;;;;;;;5.82;55.42;100264.39;1690632;83;21275;-72
2021/03/05 10:34:32;;;;;;;21.42;11.10;;;;;;;5.61;55.75;100261.30;1689151;83;21227;-72
2021/03/05 10:37:02;;;;;;;22.40;12.50;;;;;;;5.48;56.18;100262.05;1696504;83;21196;-72
2021/03/05 10:39:34;;;;;;;29.72;14.00;;;;;;;5.44;56.48;100261.71;1695812;84;21197;-73
2021/03/05 10:42:05;;;;;;;29.70;12.90;;;;;;;5.44;57.13;100260.91;1697394;83;21273;-72
2021/03/05 10:44:34;;;;;;;31.52;14.78;;;;;;;5.38;57.69;100262.10;1667101;86;21671;-71
2021/03/05 10:47:08;;;;;;;25.32;12.90;;;;;;;5.22;58.20;100261.45;1700247;83;21251;-72
2021/03/05 10:49:37;;;;;;;28.15;14.35;;;;;;;5.04;58.61;100266.86;1694080;84;21259;-72
2021/03/05 10:52:07;;;;;;;30.37;14.33;;;;;;;4.90;59.16;100270.20;1696094;83;21082;-75
2021/03/05 10:54:35;;;;;;;30.55;14.30;;;;;;;4.80;59.43;100268.09;1682812;83;21281;-72
2021/03/05 10:57:03;;;;;;;23.05;12.30;;;;;;;4.77;59.84;100270.39;1701255;83;21180;-73
2021/03/05 10:59:31;;;;;;;23.02;12.40;;;;;;;4.69;60.03;100272.33;1683326;83;21685;-72
2021/03/05 11:01:59;;;;;;;25.52;12.98;;;;;;;4.60;60.27;100278.16;1693883;83;21149;-73
2021/03/05 11:04:28;;;;;;;24.12;12.05;;;;;;;4.51;60.86;100286.10;1697819;83;21655;-71
2021/03/05 11:06:58;;;;;;;24.98;12.75;;;;;;;4.32;62.00;100288.79;1661857;84;22523;-71
2021/03/05 11:09:26;;;;;;;25.40;12.45;;;;;;;4.05;62.65;100302.00;1695710;83;21164;-72
2021/03/05 11:11:54;;;;;;;23.45;12.20;;;;;;;3.88;63.42;100299.96;1657609;84;21172;-72
2021/03/05 11:14:23;;;;;;;19.95;11.18;;;;;;;3.78;64.10;100299.63;1688290;84;21648;-72
2021/03/05 11:16:53;;;;;;;18.05;10.70;;;;;;;3.65;64.67;100309.00;1694721;83;21267;-72
2021/03/05 11:19:23;;;;;;;20.40;10.82;;;;;;;3.52;65.46;100312.08;1703991;83;21619;-71
2021/03/05 11:21:51;;;;;;;17.95;10.45;;;;;;;3.39;66.20;100309.55;1694568;82;21233;-72
2021/03/05 11:24:19;;;;;;;18.77;9.78;;;;;;;3.33;66.79;100313.56;1699009;83;21169;-73
2021/03/05 11:26:48;;;;;;;16.23;8.70;;;;;;;3.29;67.45;100305.23;1697494;83;21097;-72
2021/03/05 11:29:16;;;;;;;17.07;9.60;;;;;;;3.31;67.96;100309.80;1699665;84;21152;-73
2021/03/05 11:31:43;;;;;;;14.50;8.65;;;;;;;3.31;68.71;100309.80;1694822;83;21402;-71
2021/03/05 11:34:11;;;;;;;18.23;9.50;;;;;;;3.34;69.14;100311.21;1698721;83;22475;-72
2021/03/05 11:36:41;;;;;;;15.98;8.65;;;;;;;3.39;69.37;100310.87;1696182;83;21204;-72
2021/03/05 11:39:10;;;;;;;14.28;7.47;;;;;;;3.46;69.65;100314.26;1698422;84;21224;-71
2021/03/05 11:41:38;;;;;;;15.38;8.30;;;;;;;3.52;69.90;100318.68;1695775;83;21227;-71
2021/03/05 11:44:08;;;;;;;14.68;7.80;;;;;;;3.56;70.10;100323.53;1692779;83;21472;-71